sensor_id;sensor_type;location;lat;lon;timestamp;pressure;altitude;pressure_sealevel;temperature;humidity
49055;BME280;35405;52.344;14.530;2024-02-23T00:00:20;98064.25;;;10.88;86.51
49055;BME280;35405;52.344;14.530;2024-02-23T00:02:45;98070.06;;;10.93;86.28
49055;BME280;35405;52.344;14.530;2024-02-23T00:05:10;98069.00;;;10.96;86.16
49055;BME280;35405;52.344;14.530;2024-02-23T00:07:36;98066.13;;;11.00;86.58
49055;BME280;35405;52.344;14.530;2024-02-23T00:10:01;98065.91;;;11.04;85.88
49055;BME280;35405;52.344;14.530;2024-02-23T00:12:26;98057.03;;;11.06;85.69
49055;BME280;35405;52.344;14.530;2024-02-23T00:14:51;98058.06;;;11.04;85.93
49055;BME280;35405;52.344;14.530;2024-02-23T00:17:16;98064.59;;;11.11;85.21
49055;BME280;35405;52.344;14.530;2024-02-23T00:19:42;98060.75;;;11.16;85.14
49055;BME280;35405;52.344;14.530;2024-02-23T00:22:10;98062.44;;;11.17;85.25
49055;BME280;35405;52.344;14.530;2024-02-23T00:24:35;98058.78;;;11.20;84.46
49055;BME280;35405;52.344;14.530;2024-02-23T00:27:01;98054.38;;;11.20;84.33
49055;BME280;35405;52.344;14.530;2024-02-23T00:29:27;98060.38;;;11.22;84.76
49055;BME280;35405;52.344;14.530;2024-02-23T00:31:52;98062.88;;;11.24;84.28
49055;BME280;35405;52.344;14.530;2024-02-23T00:34:17;98061.00;;;11.26;83.52
49055;BME280;35405;52.344;14.530;2024-02-23T00:36:42;98062.78;;;11.25;83.90
49055;BME280;35405;52.344;14.530;2024-02-23T00:39:09;98053.53;;;11.20;83.21
49055;BME280;35405;52.344;14.530;2024-02-23T00:41:35;98057.88;;;11.21;84.03
49055;BME280;35405;52.344;14.530;2024-02-23T00:44:00;98055.41;;;11.18;83.32
49055;BME280;35405;52.344;14.530;2024-02-23T00:46:25;98060.28;;;11.24;82.96
49055;BME280;35405;52.344;14.530;2024-02-23T00:48:51;98065.50;;;11.24;82.79
49055;BME280;35405;52.344;14.530;2024-02-23T00:51:16;98051.47;;;11.25;83.16
49055;BME280;35405;52.344;14.530;2024-02-23T00:53:41;98062.88;;;11.24;82.54
49055;BME280;35405;52.344;14.530;2024-02-23T00:56:06;98046.78;;;11.30;82.90
49055;BME280;35405;52.344;14.530;2024-02-23T00:58:32;98056.44;;;11.30;82.17
49055;BME280;35405;52.344;14.530;2024-02-23T01:00:57;98067.84;;;11.28;81.53
49055;BME280;35405;52.344;14.530;2024-02-23T01:03:22;98060.72;;;11.31;81.87
49055;BME280;35405;52.344;14.530;2024-02-23T01:05:47;98057.72;;;11.37;82.34
49055;BME280;35405;52.344;14.530;2024-02-23T01:08:13;98057.06;;;11.33;81.37
49055;BME280;35405;52.344;14.530;2024-02-23T01:10:38;98054.25;;;11.36;81.88
49055;BME280;35405;52.344;14.530;2024-02-23T01:13:03;98060.44;;;11.35;81.88
49055;BME280;35405;52.344;14.530;2024-02-23T01:15:30;98058.72;;;11.34;81.04
49055;BME280;35405;52.344;14.530;2024-02-23T01:17:55;98051.53;;;11.38;80.88
49055;BME280;35405;52.344;14.530;2024-02-23T01:20:21;98046.41;;;11.36;80.89
49055;BME280;35405;52.344;14.530;2024-02-23T01:22:46;98044.53;;;11.38;79.94
49055;BME280;35405;52.344;14.530;2024-02-23T01:25:11;98037.91;;;11.33;79.69
49055;BME280;35405;52.344;14.530;2024-02-23T01:27:37;98038.66;;;11.35;79.16
49055;BME280;35405;52.344;14.530;2024-02-23T01:30:02;98036.03;;;11.35;79.37
49055;BME280;35405;52.344;14.530;2024-02-23T01:32:28;98053.50;;;11.34;80.04
49055;BME280;35405;52.344;14.530;2024-02-23T01:34:53;98048.91;;;11.38;79.77
49055;BME280;35405;52.344;14.530;2024-02-23T01:37:19;98053.50;;;11.34;79.67
49055;BME280;35405;52.344;14.530;2024-02-23T01:39:44;98061.34;;;11.34;79.44
49055;BME280;35405;52.344;14.530;2024-02-23T01:42:09;98069.13;;;11.36;79.66
49055;BME280;35405;52.344;14.530;2024-02-23T01:44:35;98071.94;;;11.33;79.83
49055;BME280;35405;52.344;14.530;2024-02-23T01:47:00;98068.69;;;11.29;79.81
49055;BME280;35405;52.344;14.530;2024-02-23T01:49:25;98080.53;;;11.35;79.23
49055;BME280;35405;52.344;14.530;2024-02-23T01:51:55;98084.91;;;11.34;79.23
49055;BME280;35405;52.344;14.530;2024-02-23T01:54:20;98098.75;;;11.36;78.95
49055;BME280;35405;52.344;14.530;2024-02-23T01:56:46;98106.41;;;11.39;78.47
49055;BME280;35405;52.344;14.530;2024-02-23T01:59:11;98110.97;;;11.50;78.94
49055;BME280;35405;52.344;14.530;2024-02-23T02:01:37;98109.19;;;11.50;78.89
49055;BME280;35405;52.344;14.530;2024-02-23T02:04:02;98126.59;;;11.51;78.16
49055;BME280;35405;52.344;14.530;2024-02-23T02:06:27;98129.22;;;11.51;78.52
49055;BME280;35405;52.344;14.530;2024-02-23T02:08:53;98126.38;;;11.54;78.89
49055;BME280;35405;52.344;14.530;2024-02-23T02:11:18;98123.13;;;11.51;77.75
49055;BME280;35405;52.344;14.530;2024-02-23T02:13:44;98119.69;;;11.50;78.16
49055;BME280;35405;52.344;14.530;2024-02-23T02:16:09;98128.75;;;11.45;78.07
49055;BME280;35405;52.344;14.530;2024-02-23T02:18:36;98140.28;;;11.42;78.50
49055;BME280;35405;52.344;14.530;2024-02-23T02:21:01;98155.31;;;11.39;78.00
49055;BME280;35405;52.344;14.530;2024-02-23T02:23:26;98162.53;;;11.35;77.68
49055;BME280;35405;52.344;14.530;2024-02-23T02:25:52;98168.88;;;11.31;78.73
49055;BME280;35405;52.344;14.530;2024-02-23T02:28:17;98170.75;;;11.29;77.87
49055;BME280;35405;52.344;14.530;2024-02-23T02:30:43;98176.63;;;11.33;78.39
49055;BME280;35405;52.344;14.530;2024-02-23T02:33:08;98187.00;;;11.34;78.03
49055;BME280;35405;52.344;14.530;2024-02-23T02:35:33;98194.78;;;11.36;77.48
49055;BME280;35405;52.344;14.530;2024-02-23T02:37:58;98193.16;;;11.47;78.17
49055;BME280;35405;52.344;14.530;2024-02-23T02:40:24;98192.78;;;11.53;78.47
49055;BME280;35405;52.344;14.530;2024-02-23T02:42:49;98211.13;;;11.53;77.60
49055;BME280;35405;52.344;14.530;2024-02-23T02:45:14;98210.19;;;11.54;78.02
49055;BME280;35405;52.344;14.530;2024-02-23T02:47:39;98225.88;;;11.54;77.41
49055;BME280;35405;52.344;14.530;2024-02-23T02:50:05;98248.50;;;11.55;77.52
49055;BME280;35405;52.344;14.530;2024-02-23T02:52:31;98244.03;;;11.58;77.25
49055;BME280;35405;52.344;14.530;2024-02-23T02:54:57;98247.78;;;11.53;77.32
49055;BME280;35405;52.344;14.530;2024-02-23T02:57:22;98247.78;;;11.53;76.73
49055;BME280;35405;52.344;14.530;2024-02-23T02:59:47;98251.34;;;11.52;76.71
49055;BME280;35405;52.344;14.530;2024-02-23T03:02:15;98249.47;;;11.54;75.88
49055;BME280;35405;52.344;14.530;2024-02-23T03:04:46;98228.63;;;11.53;76.16
49055;BME280;35405;52.344;14.530;2024-02-23T03:07:11;98238.81;;;11.58;75.38
49055;BME280;35405;52.344;14.530;2024-02-23T03:09:36;98257.69;;;11.63;74.25
49055;BME280;35405;52.344;14.530;2024-02-23T03:12:02;98253.09;;;11.66;74.08
49055;BME280;35405;52.344;14.530;2024-02-23T03:14:27;98256.19;;;11.59;70.93
49055;BME280;35405;52.344;14.530;2024-02-23T03:16:52;98271.06;;;11.58;70.03
49055;BME280;35405;52.344;14.530;2024-02-23T03:19:17;98282.41;;;11.59;69.87
49055;BME280;35405;52.344;14.530;2024-02-23T03:21:47;98297.53;;;11.53;69.29
49055;BME280;35405;52.344;14.530;2024-02-23T03:24:12;98294.19;;;11.51;67.60
49055;BME280;35405;52.344;14.530;2024-02-23T03:26:37;98290.16;;;11.46;64.39
49055;BME280;35405;52.344;14.530;2024-02-23T03:29:02;98311.28;;;11.43;62.58
49055;BME280;35405;52.344;14.530;2024-02-23T03:31:28;98323.53;;;11.42;61.90
49055;BME280;35405;52.344;14.530;2024-02-23T03:33:53;98324.75;;;11.37;62.18
49055;BME280;35405;52.344;14.530;2024-02-23T03:36:19;98333.72;;;11.33;61.75
49055;BME280;35405;52.344;14.530;2024-02-23T03:38:44;98331.94;;;11.33;62.60
49055;BME280;35405;52.344;14.530;2024-02-23T03:41:09;98344.47;;;11.28;60.27
49055;BME280;35405;52.344;14.530;2024-02-23T03:43:34;98356.31;;;11.34;60.25
49055;BME280;35405;52.344;14.530;2024-02-23T03:46:00;98346.16;;;11.29;59.49
49055;BME280;35405;52.344;14.530;2024-02-23T03:48:25;98349.09;;;11.09;56.32
49055;BME280;35405;52.344;14.530;2024-02-23T03:50:52;98352.44;;;11.11;59.02
49055;BME280;35405;52.344;14.530;2024-02-23T03:53:19;98371.91;;;11.07;58.87
49055;BME280;35405;52.344;14.530;2024-02-23T03:55:44;98362.63;;;11.01;59.41
49055;BME280;35405;52.344;14.530;2024-02-23T03:58:09;98375.97;;;10.96;57.52
49055;BME280;35405;52.344;14.530;2024-02-23T04:00:35;98375.97;;;10.96;57.22
49055;BME280;35405;52.344;14.530;2024-02-23T04:03:00;98397.22;;;10.90;56.92
49055;BME280;35405;52.344;14.530;2024-02-23T04:05:25;98393.06;;;10.72;54.78
49055;BME280;35405;52.344;14.530;2024-02-23T04:07:50;98385.97;;;10.74;56.18
49055;BME280;35405;52.344;14.530;2024-02-23T04:10:16;98401.41;;;10.79;54.83
49055;BME280;35405;52.344;14.530;2024-02-23T04:12:42;98399.78;;;10.76;56.22
49055;BME280;35405;52.344;14.530;2024-02-23T04:15:08;98421.22;;;10.67;55.48
49055;BME280;35405;52.344;14.530;2024-02-23T04:17:33;98450.75;;;10.69;56.91
49055;BME280;35405;52.344;14.530;2024-02-23T04:19:59;98447.38;;;10.67;57.29
49055;BME280;35405;52.344;14.530;2024-02-23T04:22:25;98459.84;;;10.62;58.23
49055;BME280;35405;52.344;14.530;2024-02-23T04:24:50;98462.81;;;10.56;58.73
49055;BME280;35405;52.344;14.530;2024-02-23T04:27:15;98477.22;;;10.47;57.89
49055;BME280;35405;52.344;14.530;2024-02-23T04:29:41;98478.06;;;10.48;59.21
49055;BME280;35405;52.344;14.530;2024-02-23T04:32:06;98480.25;;;10.39;58.91
49055;BME280;35405;52.344;14.530;2024-02-23T04:34:31;98488.63;;;10.29;57.33
49055;BME280;35405;52.344;14.530;2024-02-23T04:36:56;98488.91;;;10.24;58.02
49055;BME280;35405;52.344;14.530;2024-02-23T04:39:22;98490.97;;;10.17;57.13
49055;BME280;35405;52.344;14.530;2024-02-23T04:41:47;98506.03;;;10.12;56.12
49055;BME280;35405;52.344;14.530;2024-02-23T04:44:12;98511.16;;;10.14;57.58
49055;BME280;35405;52.344;14.530;2024-02-23T04:46:38;98516.88;;;10.05;55.34
49055;BME280;35405;52.344;14.530;2024-02-23T04:49:03;98530.66;;;10.08;56.28
49055;BME280;35405;52.344;14.530;2024-02-23T04:51:28;98531.72;;;10.04;55.32
49055;BME280;35405;52.344;14.530;2024-02-23T04:53:53;98540.31;;;10.06;55.64
49055;BME280;35405;52.344;14.530;2024-02-23T04:56:19;98541.16;;;10.07;55.99
49055;BME280;35405;52.344;14.530;2024-02-23T04:58:44;98545.00;;;10.00;54.90
49055;BME280;35405;52.344;14.530;2024-02-23T05:01:09;98569.34;;;10.00;55.76
49055;BME280;35405;52.344;14.530;2024-02-23T05:03:35;98588.56;;;9.99;55.58
49055;BME280;35405;52.344;14.530;2024-02-23T05:06:01;98577.56;;;9.93;55.26
49055;BME280;35405;52.344;14.530;2024-02-23T05:08:27;98586.50;;;9.88;56.21
49055;BME280;35405;52.344;14.530;2024-02-23T05:10:52;98589.97;;;9.89;56.75
49055;BME280;35405;52.344;14.530;2024-02-23T05:13:18;98594.47;;;9.85;57.13
49055;BME280;35405;52.344;14.530;2024-02-23T05:15:43;98597.72;;;9.73;57.09
49055;BME280;35405;52.344;14.530;2024-02-23T05:18:08;98610.75;;;9.73;57.25
49055;BME280;35405;52.344;14.530;2024-02-23T05:20:34;98617.59;;;9.76;57.53
49055;BME280;35405;52.344;14.530;2024-02-23T05:22:59;98622.25;;;9.69;57.77
49055;BME280;35405;52.344;14.530;2024-02-23T05:25:24;98626.94;;;9.62;58.10
49055;BME280;35405;52.344;14.530;2024-02-23T05:27:53;98638.13;;;9.64;58.73
49055;BME280;35405;52.344;14.530;2024-02-23T05:30:18;98656.94;;;9.54;57.43
49055;BME280;35405;52.344;14.530;2024-02-23T05:32:43;98656.22;;;9.50;58.49
49055;BME280;35405;52.344;14.530;2024-02-23T05:35:09;98659.47;;;9.36;57.66
49055;BME280;35405;52.344;14.530;2024-02-23T05:37:34;98658.50;;;9.39;58.81
49055;BME280;35405;52.344;14.530;2024-02-23T05:40:00;98678.06;;;9.30;58.25
49055;BME280;35405;52.344;14.530;2024-02-23T05:42:27;98668.66;;;9.26;58.41
49055;BME280;35405;52.344;14.530;2024-02-23T05:44:52;98667.09;;;9.22;58.54
49055;BME280;35405;52.344;14.530;2024-02-23T05:47:17;98678.44;;;9.21;58.42
49055;BME280;35405;52.344;14.530;2024-02-23T05:49:43;98688.13;;;9.19;56.82
49055;BME280;35405;52.344;14.530;2024-02-23T05:52:08;98708.84;;;9.22;56.49
49055;BME280;35405;52.344;14.530;2024-02-23T05:54:34;98720.00;;;9.26;57.22
49055;BME280;35405;52.344;14.530;2024-02-23T05:56:59;98722.81;;;9.21;56.67
49055;BME280;35405;52.344;14.530;2024-02-23T05:59:26;98742.47;;;9.10;55.92
49055;BME280;35405;52.344;14.530;2024-02-23T06:01:52;98745.78;;;9.13;57.79
49055;BME280;35405;52.344;14.530;2024-02-23T06:04:21;98748.47;;;9.12;57.58
49055;BME280;35405;52.344;14.530;2024-02-23T06:06:46;98752.91;;;9.10;58.33
49055;BME280;35405;52.344;14.530;2024-02-23T06:09:12;98756.16;;;9.15;58.83
49055;BME280;35405;52.344;14.530;2024-02-23T06:11:38;98758.75;;;9.15;59.53
49055;BME280;35405;52.344;14.530;2024-02-23T06:14:03;98751.47;;;9.02;59.29
49055;BME280;35405;52.344;14.530;2024-02-23T06:16:28;98767.19;;;9.01;60.21
49055;BME280;35405;52.344;14.530;2024-02-23T06:18:53;98772.66;;;8.95;59.79
49055;BME280;35405;52.344;14.530;2024-02-23T06:21:18;98791.47;;;9.03;60.28
49055;BME280;35405;52.344;14.530;2024-02-23T06:23:44;98784.06;;;9.13;61.28
49055;BME280;35405;52.344;14.530;2024-02-23T06:26:10;98796.00;;;9.18;60.96
49055;BME280;35405;52.344;14.530;2024-02-23T06:28:35;98796.84;;;9.19;61.30
49055;BME280;35405;52.344;14.530;2024-02-23T06:31:02;98804.78;;;9.16;60.82
49055;BME280;35405;52.344;14.530;2024-02-23T06:33:28;98818.25;;;9.06;60.58
49055;BME280;35405;52.344;14.530;2024-02-23T06:35:54;98824.56;;;9.01;59.18
49055;BME280;35405;52.344;14.530;2024-02-23T06:38:19;98833.31;;;9.00;58.72
49055;BME280;35405;52.344;14.530;2024-02-23T06:40:45;98836.69;;;9.02;58.50
49055;BME280;35405;52.344;14.530;2024-02-23T06:43:10;98850.00;;;8.96;57.79
49055;BME280;35405;52.344;14.530;2024-02-23T06:45:35;98847.41;;;8.96;58.94
49055;BME280;35405;52.344;14.530;2024-02-23T06:48:00;98844.91;;;8.93;58.40
49055;BME280;35405;52.344;14.530;2024-02-23T06:50:26;98844.25;;;8.88;57.25
49055;BME280;35405;52.344;14.530;2024-02-23T06:52:51;98837.22;;;8.90;57.91
49055;BME280;35405;52.344;14.530;2024-02-23T06:55:16;98846.06;;;8.86;57.40
49055;BME280;35405;52.344;14.530;2024-02-23T06:57:42;98852.72;;;8.93;57.48
49055;BME280;35405;52.344;14.530;2024-02-23T07:00:08;98859.47;;;8.98;57.09
49055;BME280;35405;52.344;14.530;2024-02-23T07:02:33;98864.50;;;9.03;56.40
49055;BME280;35405;52.344;14.530;2024-02-23T07:05:01;98873.09;;;9.05;56.42
49055;BME280;35405;52.344;14.530;2024-02-23T07:07:29;98886.81;;;9.10;56.41
49055;BME280;35405;52.344;14.530;2024-02-23T07:09:55;98899.00;;;9.30;57.22
49055;BME280;35405;52.344;14.530;2024-02-23T07:12:20;98906.25;;;9.44;57.96
49055;BME280;35405;52.344;14.530;2024-02-23T07:14:45;98906.13;;;9.47;56.95
49055;BME280;35405;52.344;14.530;2024-02-23T07:17:11;98892.16;;;9.48;57.51
49055;BME280;35405;52.344;14.530;2024-02-23T07:19:36;98895.28;;;9.56;57.61
49055;BME280;35405;52.344;14.530;2024-02-23T07:22:01;98896.19;;;9.75;58.39
49055;BME280;35405;52.344;14.530;2024-02-23T07:24:27;98908.28;;;9.97;58.74
49055;BME280;35405;52.344;14.530;2024-02-23T07:26:52;98910.34;;;10.09;59.00
49055;BME280;35405;52.344;14.530;2024-02-23T07:29:17;98910.69;;;10.20;59.25
49055;BME280;35405;52.344;14.530;2024-02-23T07:31:42;98913.72;;;10.31;59.70
49055;BME280;35405;52.344;14.530;2024-02-23T07:34:08;98916.91;;;10.38;59.47
49055;BME280;35405;52.344;14.530;2024-02-23T07:36:33;98919.72;;;10.33;59.44
49055;BME280;35405;52.344;14.530;2024-02-23T07:38:59;98927.69;;;10.30;59.67
49055;BME280;35405;52.344;14.530;2024-02-23T07:41:24;98930.44;;;10.27;60.16
49055;BME280;35405;52.344;14.530;2024-02-23T07:43:50;98927.38;;;10.17;60.28
49055;BME280;35405;52.344;14.530;2024-02-23T07:46:15;98924.34;;;10.08;59.98
49055;BME280;35405;52.344;14.530;2024-02-23T07:48:41;98924.84;;;10.16;61.35
49055;BME280;35405;52.344;14.530;2024-02-23T07:51:06;98922.47;;;10.30;61.53
49055;BME280;35405;52.344;14.530;2024-02-23T07:53:32;98927.97;;;10.24;60.96
49055;BME280;35405;52.344;14.530;2024-02-23T07:55:58;98937.09;;;10.34;61.42
49055;BME280;35405;52.344;14.530;2024-02-23T07:58:24;98932.00;;;10.31;61.43
49055;BME280;35405;52.344;14.530;2024-02-23T08:00:51;98940.28;;;10.21;61.29
49055;BME280;35405;52.344;14.530;2024-02-23T08:03:16;98939.34;;;10.23;61.47
49055;BME280;35405;52.344;14.530;2024-02-23T08:05:41;98964.31;;;10.30;61.37
49055;BME280;35405;52.344;14.530;2024-02-23T08:08:07;98957.78;;;10.39;60.97
49055;BME280;35405;52.344;14.530;2024-02-23T08:10:32;98969.25;;;10.55;61.23
49055;BME280;35405;52.344;14.530;2024-02-23T08:12:57;98957.38;;;10.67;60.75
49055;BME280;35405;52.344;14.530;2024-02-23T08:15:22;98977.09;;;10.74;60.15
49055;BME280;35405;52.344;14.530;2024-02-23T08:17:48;98981.25;;;10.78;60.26
49055;BME280;35405;52.344;14.530;2024-02-23T08:20:14;98991.94;;;10.73;59.12
49055;BME280;35405;52.344;14.530;2024-02-23T08:22:39;99000.13;;;10.66;59.82
49055;BME280;35405;52.344;14.530;2024-02-23T08:25:04;99012.72;;;10.58;59.54
49055;BME280;35405;52.344;14.530;2024-02-23T08:27:30;99020.56;;;10.58;59.36
49055;BME280;35405;52.344;14.530;2024-02-23T08:29:55;99022.34;;;10.57;58.59
49055;BME280;35405;52.344;14.530;2024-02-23T08:32:20;99021.75;;;10.69;59.91
49055;BME280;35405;52.344;14.530;2024-02-23T08:34:45;99035.41;;;10.76;59.04
49055;BME280;35405;52.344;14.530;2024-02-23T08:37:11;99041.28;;;10.81;59.07
49055;BME280;35405;52.344;14.530;2024-02-23T08:39:37;99033.16;;;10.87;58.33
49055;BME280;35405;52.344;14.530;2024-02-23T08:42:02;99042.81;;;10.85;56.72
49055;BME280;35405;52.344;14.530;2024-02-23T08:44:28;99039.94;;;10.72;56.12
49055;BME280;35405;52.344;14.530;2024-02-23T08:46:53;99046.88;;;10.73;55.96
49055;BME280;35405;52.344;14.530;2024-02-23T08:49:19;99056.72;;;10.87;55.97
49055;BME280;35405;52.344;14.530;2024-02-23T08:51:50;99065.53;;;11.04;56.76
49055;BME280;35405;52.344;14.530;2024-02-23T08:54:15;99058.09;;;11.13;57.43
49055;BME280;35405;52.344;14.530;2024-02-23T08:57:01;99062.34;;;11.16;56.76
49055;BME280;35405;52.344;14.530;2024-02-23T08:59:26;99075.31;;;11.00;56.04
49055;BME280;35405;52.344;14.530;2024-02-23T09:01:52;99071.19;;;10.94;56.01
49055;BME280;35405;52.344;14.530;2024-02-23T09:04:17;99084.56;;;10.88;56.79
49055;BME280;35405;52.344;14.530;2024-02-23T09:06:42;99079.16;;;10.91;57.10
49055;BME280;35405;52.344;14.530;2024-02-23T09:09:07;99076.50;;;10.93;57.02
49055;BME280;35405;52.344;14.530;2024-02-23T09:11:33;99076.56;;;10.91;57.28
49055;BME280;35405;52.344;14.530;2024-02-23T09:13:58;99070.47;;;10.91;56.92
49055;BME280;35405;52.344;14.530;2024-02-23T09:16:24;99087.66;;;10.96;56.69
49055;BME280;35405;52.344;14.530;2024-02-23T09:18:49;99078.50;;;11.07;56.79
49055;BME280;35405;52.344;14.530;2024-02-23T09:21:15;99083.19;;;10.98;56.42
49055;BME280;35405;52.344;14.530;2024-02-23T09:23:40;99081.03;;;11.08;56.55
49055;BME280;35405;52.344;14.530;2024-02-23T09:26:09;99079.91;;;10.95;56.59
49055;BME280;35405;52.344;14.530;2024-02-23T09:28:35;99085.97;;;10.95;57.16
49055;BME280;35405;52.344;14.530;2024-02-23T09:31:00;99085.69;;;11.02;56.64
49055;BME280;35405;52.344;14.530;2024-02-23T09:33:26;99083.38;;;11.14;56.43
49055;BME280;35405;52.344;14.530;2024-02-23T09:35:51;99081.91;;;11.26;57.01
49055;BME280;35405;52.344;14.530;2024-02-23T09:38:16;99081.34;;;11.19;56.50
49055;BME280;35405;52.344;14.530;2024-02-23T09:40:42;99079.22;;;11.27;56.85
49055;BME280;35405;52.344;14.530;2024-02-23T09:43:07;99099.84;;;11.16;56.56
49055;BME280;35405;52.344;14.530;2024-02-23T09:45:33;99098.72;;;11.22;57.34
49055;BME280;35405;52.344;14.530;2024-02-23T09:47:58;99117.97;;;11.21;56.82
49055;BME280;35405;52.344;14.530;2024-02-23T09:50:25;99114.41;;;11.03;55.99
49055;BME280;35405;52.344;14.530;2024-02-23T09:52:52;99120.97;;;11.12;57.68
49055;BME280;35405;52.344;14.530;2024-02-23T09:55:17;99128.91;;;11.29;56.69
49055;BME280;35405;52.344;14.530;2024-02-23T09:57:44;99131.94;;;11.39;57.67
49055;BME280;35405;52.344;14.530;2024-02-23T10:00:09;99135.97;;;11.27;55.56
49055;BME280;35405;52.344;14.530;2024-02-23T10:02:35;99145.75;;;11.23;56.35
49055;BME280;35405;52.344;14.530;2024-02-23T10:05:01;99138.94;;;11.19;56.54
49055;BME280;35405;52.344;14.530;2024-02-23T10:07:27;99137.97;;;11.22;56.44
49055;BME280;35405;52.344;14.530;2024-02-23T10:09:53;99137.81;;;11.25;55.62
49055;BME280;35405;52.344;14.530;2024-02-23T10:12:18;99137.91;;;11.23;55.97
49055;BME280;35405;52.344;14.530;2024-02-23T10:14:43;99146.13;;;11.16;55.50
49055;BME280;35405;52.344;14.530;2024-02-23T10:17:08;99152.69;;;11.24;55.18
49055;BME280;35405;52.344;14.530;2024-02-23T10:19:34;99148.50;;;11.39;55.61
49055;BME280;35405;52.344;14.530;2024-02-23T10:21:59;99155.59;;;11.37;54.87
49055;BME280;35405;52.344;14.530;2024-02-23T10:24:24;99147.38;;;11.45;55.87
49055;BME280;35405;52.344;14.530;2024-02-23T10:26:51;99151.81;;;11.62;55.22
49055;BME280;35405;52.344;14.530;2024-02-23T10:29:16;99149.13;;;11.63;55.35
49055;BME280;35405;52.344;14.530;2024-02-23T10:31:41;99144.66;;;11.65;54.57
49055;BME280;35405;52.344;14.530;2024-02-23T10:34:08;99148.91;;;11.68;53.91
49055;BME280;35405;52.344;14.530;2024-02-23T10:36:42;99145.50;;;11.66;54.86
49055;BME280;35405;52.344;14.530;2024-02-23T10:39:08;99144.75;;;11.64;55.31
49055;BME280;35405;52.344;14.530;2024-02-23T10:41:37;99136.03;;;11.63;55.37
49055;BME280;35405;52.344;14.530;2024-02-23T10:44:05;99138.09;;;11.57;54.82
49055;BME280;35405;52.344;14.530;2024-02-23T10:46:33;99143.28;;;11.39;53.17
49055;BME280;35405;52.344;14.530;2024-02-23T10:48:58;99137.75;;;11.26;52.80
49055;BME280;35405;52.344;14.530;2024-02-23T10:51:26;99143.44;;;11.36;53.03
49055;BME280;35405;52.344;14.530;2024-02-23T10:53:52;99144.56;;;11.49;51.75
49055;BME280;35405;52.344;14.530;2024-02-23T10:56:18;99142.53;;;11.54;53.37
49055;BME280;35405;52.344;14.530;2024-02-23T10:58:43;99156.00;;;11.47;50.00
49055;BME280;35405;52.344;14.530;2024-02-23T11:01:08;99162.25;;;11.63;50.54
49055;BME280;35405;52.344;14.530;2024-02-23T11:03:34;99161.94;;;11.88;51.01
49055;BME280;35405;52.344;14.530;2024-02-23T11:06:00;99155.91;;;11.86;51.51
49055;BME280;35405;52.344;14.530;2024-02-23T11:08:29;99162.66;;;11.92;51.25
49055;BME280;35405;52.344;14.530;2024-02-23T11:10:54;99164.88;;;11.99;51.59
49055;BME280;35405;52.344;14.530;2024-02-23T11:13:35;99152.72;;;11.98;51.52
49055;BME280;35405;52.344;14.530;2024-02-23T11:16:04;99159.84;;;11.95;51.86
49055;BME280;35405;52.344;14.530;2024-02-23T11:18:30;99152.00;;;11.76;49.04
49055;BME280;35405;52.344;14.530;2024-02-23T11:21:00;99159.09;;;11.74;50.75
49055;BME280;35405;52.344;14.530;2024-02-23T11:23:26;99171.97;;;11.78;50.55
49055;BME280;35405;52.344;14.530;2024-02-23T11:25:58;99182.91;;;11.88;51.08
49055;BME280;35405;52.344;14.530;2024-02-23T11:28:24;99180.28;;;11.88;51.91
49055;BME280;35405;52.344;14.530;2024-02-23T11:30:50;99174.09;;;11.89;51.31
49055;BME280;35405;52.344;14.530;2024-02-23T11:33:15;99173.97;;;11.92;51.49
49055;BME280;35405;52.344;14.530;2024-02-23T11:35:50;99173.53;;;11.82;50.34
49055;BME280;35405;52.344;14.530;2024-02-23T11:38:16;99162.34;;;11.79;50.81
49055;BME280;35405;52.344;14.530;2024-02-23T11:40:43;99166.59;;;11.63;50.15
49055;BME280;35405;52.344;14.530;2024-02-23T11:43:10;99174.63;;;11.60;50.75
49055;BME280;35405;52.344;14.530;2024-02-23T11:45:36;99175.34;;;11.63;49.54
49055;BME280;35405;52.344;14.530;2024-02-23T11:48:01;99190.91;;;11.66;50.42
49055;BME280;35405;52.344;14.530;2024-02-23T11:50:26;99189.03;;;11.68;49.97
49055;BME280;35405;52.344;14.530;2024-02-23T11:52:51;99195.00;;;11.72;51.08
49055;BME280;35405;52.344;14.530;2024-02-23T11:55:20;99202.81;;;11.92;50.89
49055;BME280;35405;52.344;14.530;2024-02-23T11:57:48;99207.59;;;12.01;50.11
49055;BME280;35405;52.344;14.530;2024-02-23T12:00:14;99212.38;;;12.10;49.11
49055;BME280;35405;52.344;14.530;2024-02-23T12:02:40;99216.69;;;12.12;48.84
49055;BME280;35405;52.344;14.530;2024-02-23T12:05:05;99217.22;;;12.01;48.76
49055;BME280;35405;52.344;14.530;2024-02-23T12:07:31;99216.19;;;11.86;48.85
49055;BME280;35405;52.344;14.530;2024-02-23T12:09:57;99216.53;;;11.78;49.27
49055;BME280;35405;52.344;14.530;2024-02-23T12:12:23;99213.69;;;11.83;48.89
49055;BME280;35405;52.344;14.530;2024-02-23T12:14:48;99209.25;;;11.85;47.12
49055;BME280;35405;52.344;14.530;2024-02-23T12:17:14;99210.31;;;11.81;47.17
49055;BME280;35405;52.344;14.530;2024-02-23T12:19:40;99218.03;;;11.65;47.28
49055;BME280;35405;52.344;14.530;2024-02-23T12:22:05;99232.41;;;11.57;47.86
49055;BME280;35405;52.344;14.530;2024-02-23T12:24:30;99224.16;;;11.45;47.28
49055;BME280;35405;52.344;14.530;2024-02-23T12:26:56;99227.63;;;11.46;47.60
49055;BME280;35405;52.344;14.530;2024-02-23T12:29:21;99228.69;;;11.61;46.82
49055;BME280;35405;52.344;14.530;2024-02-23T12:31:46;99215.81;;;11.75;47.58
49055;BME280;35405;52.344;14.530;2024-02-23T12:34:12;99212.13;;;11.79;47.81
49055;BME280;35405;52.344;14.530;2024-02-23T12:36:38;99221.69;;;11.61;46.42
49055;BME280;35405;52.344;14.530;2024-02-23T12:39:04;99220.19;;;11.55;47.41
49055;BME280;35405;52.344;14.530;2024-02-23T12:41:29;99223.81;;;11.53;47.63
49055;BME280;35405;52.344;14.530;2024-02-23T12:43:54;99216.16;;;11.48;48.14